Time;durP1;ratioP1;P1;durP2;ratioP2;P2;SDS_P1;SDS_P2;PMS_P1;PMS_P2;Temp;Humidity;BMP_temperature;BMP_pressure;BME280_temperature;BME280_humidity;BME280_pressure;Samples;Min_cycle;Max_cycle;Signal;HPM_P1;HPM_P2
2023/05/24 00:02:25;;;;;;;6.78;4.25;;;17.50;99.90;;;;;;5113426;28;20028;-68
2023/05/24 00:04:51;;;;;;;4.30;3.90;;;17.50;99.90;;;;;;5113903;28;20046;-68
2023/05/24 00:07:17;;;;;;;4.30;3.88;;;17.40;99.90;;;;;;5113608;28;20032;-68
2023/05/24 00:09:43;;;;;;;10.27;3.88;;;17.40;99.90;;;;;;5114277;28;20031;-68
2023/05/24 00:12:09;;;;;;;4.70;3.80;;;17.40;99.90;;;;;;5113572;28;20031;-68
2023/05/24 00:14:34;;;;;;;5.43;4.05;;;17.40;99.90;;;;;;5113911;28;20387;-68
2023/05/24 00:17:00;;;;;;;5.03;4.00;;;17.40;99.90;;;;;;5113707;28;20031;-68
2023/05/24 00:19:26;;;;;;;4.10;3.70;;;17.40;99.90;;;;;;5113049;28;20034;-68
2023/05/24 00:21:52;;;;;;;5.20;4.15;;;17.30;99.90;;;;;;5113627;28;20020;-68
2023/05/24 00:24:18;;;;;;;5.32;3.70;;;17.30;99.90;;;;;;5113275;28;20130;-68
2023/05/24 00:26:44;;;;;;;5.82;3.65;;;17.30;99.90;;;;;;5113700;28;20059;-68
2023/05/24 00:29:10;;;;;;;5.32;3.63;;;17.30;99.90;;;;;;5113263;28;20028;-69
2023/05/24 00:31:35;;;;;;;5.00;3.45;;;17.30;99.90;;;;;;5113645;28;20028;-68
2023/05/24 00:34:01;;;;;;;5.68;3.40;;;17.30;99.90;;;;;;5113559;28;20228;-68
2023/05/24 00:36:26;;;;;;;5.65;3.42;;;17.30;99.90;;;;;;5113046;28;20023;-69
2023/05/24 00:38:52;;;;;;;3.60;3.00;;;17.40;99.90;;;;;;5113142;28;20038;-69
2023/05/24 00:41:18;;;;;;;5.28;2.92;;;17.40;99.90;;;;;;5113045;28;20058;-69
2023/05/24 00:43:44;;;;;;;3.80;3.30;;;17.40;99.90;;;;;;5113436;28;20088;-68
2023/05/24 00:46:15;;;;;;;4.32;3.40;;;17.40;99.90;;;;;;5113308;28;20103;-69
2023/05/24 00:48:42;;;;;;;4.32;3.00;;;17.40;99.90;;;;;;5113389;28;20473;-68
2023/05/24 00:51:08;;;;;;;6.47;3.53;;;17.40;99.90;;;;;;5112621;28;20067;-70
2023/05/24 00:53:35;;;;;;;5.00;3.35;;;17.30;99.90;;;;;;5113436;28;20058;-68
2023/05/24 00:56:02;;;;;;;3.38;2.67;;;17.20;99.90;;;;;;5113230;28;20111;-69
2023/05/24 00:58:29;;;;;;;3.50;3.20;;;17.20;99.90;;;;;;5112889;28;20194;-69
2023/05/24 01:00:58;;;;;;;3.35;2.80;;;17.20;99.90;;;;;;5116712;28;20076;-68
2023/05/24 01:03:28;;;;;;;5.72;2.83;;;17.20;99.90;;;;;;5119584;27;20027;-69
2023/05/24 01:05:57;;;;;;;4.72;3.05;;;17.10;99.90;;;;;;5119696;27;20472;-68
2023/05/24 01:08:25;;;;;;;3.83;3.08;;;17.10;99.90;;;;;;5117178;27;20114;-69
2023/05/24 01:11:10;;;;;;;3.25;2.95;;;17.10;99.90;;;;;;5119604;28;20153;-69
2023/05/24 01:13:47;;;;;;;6.05;3.13;;;17.00;99.90;;;;;;5119806;28;20470;-68
2023/05/24 01:16:25;;;;;;;4.22;2.90;;;17.00;99.90;;;;;;5119218;28;20039;-69
2023/05/24 01:18:55;;;;;;;6.88;3.28;;;16.90;99.90;;;;;;5120389;28;20039;-69
2023/05/24 01:21:26;;;;;;;3.80;3.05;;;16.80;99.90;;;;;;5119652;28;20031;-68
2023/05/24 01:24:16;;;;;;;3.10;2.80;;;16.80;99.90;;;;;;5120062;28;20097;-68
2023/05/24 01:27:13;;;;;;;2.70;2.50;;;16.80;99.90;;;;;;5119882;28;20058;-69
2023/05/24 01:29:39;;;;;;;4.75;2.80;;;16.70;99.90;;;;;;5102501;28;20541;-68
2023/05/24 01:32:05;;;;;;;3.08;2.70;;;16.60;99.90;;;;;;5121229;28;20072;-69
2023/05/24 01:34:31;;;;;;;4.70;2.92;;;16.60;99.90;;;;;;5120487;27;20023;-68
2023/05/24 01:36:57;;;;;;;3.75;3.13;;;16.60;99.90;;;;;;5120597;28;20361;-68
2023/05/24 01:39:26;;;;;;;4.22;3.08;;;16.60;99.90;;;;;;5119279;28;20031;-68
2023/05/24 01:42:27;;;;;;;3.10;2.80;;;16.50;99.90;;;;;;5119685;28;20030;-68
2023/05/24 01:45:11;;;;;;;3.58;3.15;;;16.50;99.90;;;;;;5056276;28;20049;-68
2023/05/24 01:47:52;;;;;;;2.97;2.67;;;16.50;99.90;;;;;;5114112;28;20077;-69
2023/05/24 01:50:28;;;;;;;3.67;2.80;;;16.50;99.90;;;;;;5116914;28;20023;-69
2023/05/24 01:52:57;;;;;;;3.15;2.85;;;16.40;99.90;;;;;;5119845;28;20476;-69
2023/05/24 01:55:25;;;;;;;3.53;3.22;;;16.40;99.90;;;;;;5119126;28;20024;-69
2023/05/24 01:57:57;;;;;;;3.83;3.22;;;16.40;99.90;;;;;;5119249;27;20451;-68
2023/05/24 02:00:23;;;;;;;4.63;3.15;;;16.40;99.90;;;;;;5118926;27;20043;-69
2023/05/24 02:02:49;;;;;;;3.33;3.03;;;16.30;99.90;;;;;;5119261;27;20035;-69
2023/05/24 02:05:15;;;;;;;4.90;2.90;;;16.30;99.90;;;;;;5119099;27;20020;-69
2023/05/24 02:07:41;;;;;;;3.67;2.95;;;16.20;99.90;;;;;;5119637;28;20106;-69
2023/05/24 02:10:07;;;;;;;5.13;3.33;;;16.30;99.90;;;;;;5119812;27;20479;-68
2023/05/24 02:12:33;;;;;;;3.60;3.25;;;16.30;99.90;;;;;;5116002;27;20078;-69
2023/05/24 02:14:59;;;;;;;7.03;3.78;;;16.20;99.90;;;;;;5116464;28;20051;-69
2023/05/24 02:17:25;;;;;;;5.63;3.78;;;16.20;99.90;;;;;;5115471;28;20110;-69
2023/05/24 02:19:51;;;;;;;4.25;3.47;;;16.20;99.90;;;;;;5116149;28;20097;-68
2023/05/24 02:22:16;;;;;;;6.43;3.75;;;16.20;99.90;;;;;;5115752;28;20071;-69
2023/05/24 02:24:42;;;;;;;3.55;3.10;;;16.10;99.90;;;;;;5114659;28;20024;-68
2023/05/24 02:27:08;;;;;;;7.22;3.72;;;16.10;99.90;;;;;;5115500;28;20038;-69
2023/05/24 02:29:35;;;;;;;5.10;3.97;;;16.10;99.90;;;;;;5115445;28;20034;-69
2023/05/24 02:32:00;;;;;;;4.63;3.47;;;16.10;99.90;;;;;;5115842;28;20027;-68
2023/05/24 02:34:26;;;;;;;10.88;4.03;;;16.00;99.90;;;;;;5115483;28;20419;-69
2023/05/24 02:36:53;;;;;;;4.95;4.10;;;16.00;99.90;;;;;;5114541;28;20464;-69
2023/05/24 02:39:19;;;;;;;5.80;3.78;;;16.00;99.90;;;;;;5115306;28;20039;-69
2023/05/24 02:41:44;;;;;;;4.22;3.50;;;16.00;99.90;;;;;;5115587;28;20031;-68
2023/05/24 02:44:10;;;;;;;4.53;3.70;;;16.00;99.90;;;;;;5115731;28;20027;-68
2023/05/24 02:46:36;;;;;;;4.80;3.45;;;16.00;99.90;;;;;;5115333;28;20127;-69
2023/05/24 02:49:01;;;;;;;4.68;3.20;;;16.00;99.90;;;;;;5115511;28;20516;-69
2023/05/24 02:51:27;;;;;;;4.07;3.63;;;16.00;99.90;;;;;;5114893;28;20032;-69
2023/05/24 02:53:53;;;;;;;4.70;3.55;;;15.90;99.90;;;;;;5114555;28;20055;-68
2023/05/24 02:56:18;;;;;;;4.28;3.88;;;16.00;99.90;;;;;;5113586;28;20031;-69
2023/05/24 02:58:44;;;;;;;5.22;3.47;;;16.00;99.90;;;;;;5115028;28;20391;-68
2023/05/24 03:01:14;;;;;;;7.82;3.63;;;16.00;99.90;;;;;;5115193;28;20024;-67
2023/05/24 03:03:39;;;;;;;4.13;3.08;;;15.90;99.90;;;;;;5112506;28;20480;-68
2023/05/24 03:06:06;;;;;;;4.53;3.90;;;15.90;99.90;;;;;;5115145;28;20037;-68
2023/05/24 03:08:36;;;;;;;7.03;3.30;;;15.90;99.90;;;;;;5114634;28;20110;-68
2023/05/24 03:11:02;;;;;;;4.30;3.85;;;15.90;99.90;;;;;;5114982;28;20028;-68
2023/05/24 03:13:27;;;;;;;4.53;3.85;;;15.90;99.90;;;;;;5114614;28;20030;-70
2023/05/24 03:15:53;;;;;;;4.07;3.67;;;15.90;99.90;;;;;;5114880;28;20024;-69
2023/05/24 03:18:19;;;;;;;4.32;3.22;;;15.90;99.90;;;;;;5114561;28;20115;-70
2023/05/24 03:20:45;;;;;;;4.50;3.65;;;16.00;99.90;;;;;;5114920;28;20024;-70
2023/05/24 03:23:10;;;;;;;3.35;3.00;;;16.00;99.90;;;;;;5114716;28;20088;-69
2023/05/24 03:25:36;;;;;;;3.90;3.50;;;16.10;99.90;;;;;;5114354;28;20099;-67
2023/05/24 03:28:02;;;;;;;6.05;3.53;;;16.10;99.90;;;;;;5114488;28;20055;-69
2023/05/24 03:30:28;;;;;;;4.97;3.33;;;16.10;99.90;;;;;;5114305;28;20020;-69
2023/05/24 03:32:54;;;;;;;5.75;3.92;;;16.00;99.90;;;;;;5114319;28;20023;-69
2023/05/24 03:35:20;;;;;;;3.97;3.58;;;15.90;99.90;;;;;;5114092;28;20106;-70
2023/05/24 03:37:45;;;;;;;4.47;3.25;;;15.90;99.90;;;;;;5114560;28;20111;-70
2023/05/24 03:40:11;;;;;;;4.43;4.00;;;15.80;99.90;;;;;;5114180;28;20105;-69
2023/05/24 03:42:37;;;;;;;4.47;3.83;;;15.90;99.90;;;;;;5113977;28;20031;-69
2023/05/24 03:45:04;;;;;;;4.20;3.67;;;15.80;99.90;;;;;;5113890;28;20092;-69
2023/05/24 03:47:29;;;;;;;4.60;4.10;;;15.90;99.90;;;;;;5113827;28;20023;-69
2023/05/24 03:49:55;;;;;;;4.38;3.55;;;15.90;99.90;;;;;;5113830;28;20506;-69
2023/05/24 03:52:21;;;;;;;5.65;3.70;;;15.80;99.90;;;;;;5113754;28;20032;-70
2023/05/24 03:54:48;;;;;;;4.80;3.50;;;15.80;99.90;;;;;;5114164;28;20030;-70
2023/05/24 03:57:13;;;;;;;4.57;3.97;;;15.80;99.90;;;;;;5114062;28;20070;-69
2023/05/24 03:59:39;;;;;;;4.07;3.50;;;15.80;99.90;;;;;;5114006;28;20081;-70
2023/05/24 04:02:05;;;;;;;5.28;3.25;;;15.80;99.90;;;;;;5114044;28;20027;-69
2023/05/24 04:04:31;;;;;;;5.68;3.95;;;15.80;99.90;;;;;;5113373;28;20027;-70
2023/05/24 04:06:57;;;;;;;4.32;3.40;;;15.90;99.90;;;;;;5114010;28;20063;-70
2023/05/24 04:09:24;;;;;;;4.05;3.65;;;15.90;99.90;;;;;;5113519;28;20028;-70
2023/05/24 04:11:50;;;;;;;4.70;3.90;;;15.90;99.90;;;;;;5113811;28;20027;-69
2023/05/24 04:14:15;;;;;;;4.07;3.60;;;15.90;99.90;;;;;;5113808;28;20023;-69
2023/05/24 04:16:43;;;;;;;4.55;3.88;;;16.00;99.90;;;;;;5112039;28;20036;-70
2023/05/24 04:19:09;;;;;;;4.15;3.63;;;16.10;99.90;;;;;;5113492;28;20057;-69
2023/05/24 04:21:36;;;;;;;4.45;3.95;;;16.20;99.90;;;;;;5113254;28;20020;-69
2023/05/24 04:24:03;;;;;;;4.72;3.67;;;16.30;99.90;;;;;;5113434;28;20019;-69
2023/05/24 04:26:30;;;;;;;4.22;3.38;;;16.40;99.90;;;;;;5113223;28;20028;-71
2023/05/24 04:28:56;;;;;;;3.60;3.30;;;16.50;99.90;;;;;;5113599;28;20024;-67
2023/05/24 04:31:21;;;;;;;4.65;3.33;;;16.60;99.90;;;;;;5113511;28;20028;-67
2023/05/24 04:33:48;;;;;;;5.63;3.45;;;16.70;99.90;;;;;;5113143;28;20038;-70
2023/05/24 04:36:15;;;;;;;4.32;3.67;;;16.90;99.90;;;;;;5112907;28;20066;-70
2023/05/24 04:38:40;;;;;;;4.40;3.38;;;17.00;99.20;;;;;;5113056;28;20082;-68
2023/05/24 04:41:06;;;;;;;4.05;3.65;;;17.10;99.10;;;;;;5113309;28;20376;-68
2023/05/24 04:43:33;;;;;;;5.57;3.50;;;17.20;98.60;;;;;;5112936;28;20148;-70
2023/05/24 04:45:59;;;;;;;3.83;3.42;;;17.40;98.70;;;;;;5112883;28;20076;-68
2023/05/24 04:48:24;;;;;;;2.83;2.53;;;17.50;97.90;;;;;;5112526;28;20102;-69
2023/05/24 04:50:51;;;;;;;3.40;3.10;;;17.70;97.30;;;;;;5113174;28;20034;-70
2023/05/24 04:53:17;;;;;;;4.15;3.40;;;17.90;96.90;;;;;;5113192;28;20085;-68
2023/05/24 04:55:43;;;;;;;4.93;3.45;;;18.00;96.10;;;;;;5113058;28;20076;-68
2023/05/24 04:58:09;;;;;;;3.55;3.25;;;18.10;95.40;;;;;;5113033;28;20035;-68
2023/05/24 05:00:34;;;;;;;3.45;3.08;;;18.10;94.70;;;;;;5112730;28;20031;-69
2023/05/24 05:03:00;;;;;;;3.75;3.20;;;18.30;94.80;;;;;;5112738;28;20024;-68
2023/05/24 05:05:26;;;;;;;3.30;3.00;;;18.50;94.70;;;;;;5112698;28;20039;-69
2023/05/24 05:07:51;;;;;;;3.90;2.90;;;18.80;94.30;;;;;;5111706;28;20035;-69
2023/05/24 05:10:17;;;;;;;3.58;2.95;;;19.30;93.40;;;;;;5113019;28;20026;-68
2023/05/24 05:12:43;;;;;;;3.80;3.40;;;19.60;91.70;;;;;;5112428;28;20361;-69
2023/05/24 05:15:09;;;;;;;5.05;3.00;;;19.80;90.20;;;;;;5112817;28;20028;-68
2023/05/24 05:17:35;;;;;;;4.57;2.90;;;20.00;90.20;;;;;;5112453;28;20027;-68
2023/05/24 05:20:01;;;;;;;3.55;3.08;;;20.40;87.80;;;;;;5112908;28;20034;-68
2023/05/24 05:22:26;;;;;;;4.60;2.65;;;20.50;86.20;;;;;;5112627;28;20028;-69
2023/05/24 05:24:52;;;;;;;2.80;2.53;;;20.90;84.70;;;;;;5113249;28;20109;-68
2023/05/24 05:27:17;;;;;;;6.43;2.50;;;21.20;82.30;;;;;;5112818;28;20027;-68
2023/05/24 05:29:43;;;;;;;4.43;2.75;;;21.40;80.40;;;;;;5112368;28;20019;-68
2023/05/24 05:32:09;;;;;;;3.58;2.30;;;21.90;79.10;;;;;;5112853;28;20050;-68
2023/05/24 05:34:34;;;;;;;2.50;2.30;;;21.90;76.30;;;;;;5112499;28;20031;-69
2023/05/24 05:37:00;;;;;;;2.50;2.30;;;22.50;75.50;;;;;;5112466;28;20114;-68
2023/05/24 05:39:26;;;;;;;2.67;2.30;;;22.50;72.90;;;;;;5112326;28;20028;-68
2023/05/24 05:41:52;;;;;;;2.15;1.95;;;22.70;71.60;;;;;;5111225;28;20111;-68
2023/05/24 05:44:17;;;;;;;6.90;2.70;;;22.50;73.70;;;;;;5112588;28;20353;-69
2023/05/24 05:46:44;;;;;;;2.70;2.50;;;22.70;72.00;;;;;;5112320;28;20027;-67
2023/05/24 05:49:11;;;;;;;3.05;2.75;;;22.60;72.80;;;;;;5116019;28;20023;-68
2023/05/24 05:51:37;;;;;;;5.40;2.70;;;22.50;71.40;;;;;;5116121;28;20032;-67
2023/05/24 05:54:04;;;;;;;5.00;2.25;;;22.40;71.90;;;;;;5116445;28;20055;-68
2023/05/24 05:56:30;;;;;;;2.20;2.00;;;22.80;71.10;;;;;;5115550;28;20110;-69
2023/05/24 05:58:55;;;;;;;3.50;2.40;;;23.20;69.80;;;;;;5116285;28;20126;-68
2023/05/24 06:01:24;;;;;;;3.00;2.30;;;23.80;68.70;;;;;;5116408;28;20419;-68
2023/05/24 06:03:50;;;;;;;2.22;1.90;;;23.80;66.30;;;;;;5114609;28;20461;-68
2023/05/24 06:06:16;;;;;;;3.03;1.70;;;24.50;67.00;;;;;;5116562;28;20426;-68
2023/05/24 06:08:41;;;;;;;3.45;1.88;;;25.10;62.30;;;;;;5115593;28;20111;-68
2023/05/24 06:11:07;;;;;;;2.78;1.95;;;24.80;61.70;;;;;;5116411;28;20015;-69
2023/05/24 06:13:32;;;;;;;3.67;1.88;;;24.70;63.50;;;;;;5115652;28;20149;-68
2023/05/24 06:15:59;;;;;;;1.90;1.58;;;25.60;61.10;;;;;;5115978;28;20027;-69
2023/05/24 06:18:26;;;;;;;4.97;1.92;;;25.00;62.00;;;;;;5116052;28;20039;-68
2023/05/24 06:20:52;;;;;;;3.38;1.40;;;24.70;61.10;;;;;;5115507;28;20031;-68
2023/05/24 06:23:17;;;;;;;2.15;1.77;;;24.80;61.10;;;;;;5115848;28;20073;-68
2023/05/24 06:25:43;;;;;;;1.52;1.40;;;25.00;62.00;;;;;;5115279;28;20096;-69
2023/05/24 06:28:09;;;;;;;1.40;1.30;;;24.80;59.40;;;;;;5115853;28;20464;-69
2023/05/24 06:30:35;;;;;;;1.63;1.52;;;24.40;60.90;;;;;;5115399;28;20069;-69
2023/05/24 06:33:01;;;;;;;1.50;1.40;;;24.40;61.30;;;;;;5115555;28;20024;-67
2023/05/24 06:35:27;;;;;;;1.80;1.60;;;25.20;60.90;;;;;;5115690;27;20087;-69
2023/05/24 06:37:52;;;;;;;1.67;1.45;;;25.00;58.70;;;;;;5115248;28;20035;-69
2023/05/24 06:40:18;;;;;;;2.65;1.45;;;24.90;59.60;;;;;;5115606;28;20055;-68
2023/05/24 06:42:43;;;;;;;3.05;1.48;;;25.20;60.20;;;;;;5115057;28;20024;-69
2023/05/24 06:45:09;;;;;;;1.63;1.52;;;25.40;57.30;;;;;;5115156;28;20056;-68
2023/05/24 06:47:36;;;;;;;2.97;1.40;;;25.10;58.90;;;;;;5114623;28;20152;-67
2023/05/24 06:50:05;;;;;;;1.63;1.42;;;24.50;59.70;;;;;;5115409;28;20031;-67
2023/05/24 06:52:31;;;;;;;6.18;1.52;;;24.70;59.60;;;;;;5115368;28;20111;-68
2023/05/24 06:54:56;;;;;;;3.05;1.50;;;24.90;58.80;;;;;;5114739;28;20106;-68
2023/05/24 06:57:23;;;;;;;1.90;1.40;;;24.90;58.20;;;;;;5115361;28;20035;-68
2023/05/24 06:59:48;;;;;;;1.65;1.38;;;24.60;57.60;;;;;;5114321;28;20024;-68
2023/05/24 07:02:14;;;;;;;2.40;1.65;;;24.60;58.80;;;;;;5115222;28;20025;-68
2023/05/24 07:04:41;;;;;;;1.35;1.20;;;24.50;59.20;;;;;;5114926;28;20019;-68
2023/05/24 07:07:07;;;;;;;1.30;1.20;;;24.70;59.80;;;;;;5115151;28;20064;-69
2023/05/24 07:09:33;;;;;;;3.00;1.50;;;24.40;58.40;;;;;;5114388;28;20092;-72
2023/05/24 07:11:59;;;;;;;1.30;1.20;;;24.20;58.90;;;;;;5114747;28;20019;-68
2023/05/24 07:14:26;;;;;;;5.32;1.67;;;24.10;60.60;;;;;;5114943;28;20063;-69
2023/05/24 07:16:53;;;;;;;1.90;1.42;;;24.90;59.20;;;;;;5114394;28;20031;-69
2023/05/24 07:19:20;;;;;;;2.08;1.40;;;25.30;56.10;;;;;;5114975;28;20027;-69
2023/05/24 07:21:46;;;;;;;4.03;1.30;;;25.50;56.10;;;;;;5114192;28;20479;-69
2023/05/24 07:24:12;;;;;;;1.20;1.10;;;25.00;55.60;;;;;;5113513;28;20106;-68
2023/05/24 07:26:38;;;;;;;2.30;1.35;;;25.40;56.50;;;;;;5114132;28;20521;-69
2023/05/24 07:29:03;;;;;;;2.17;1.23;;;24.90;55.60;;;;;;5114715;28;20102;-68
2023/05/24 07:31:31;;;;;;;2.75;1.17;;;24.60;55.80;;;;;;5114029;28;20448;-69
2023/05/24 07:33:57;;;;;;;1.95;1.20;;;25.20;56.50;;;;;;5114153;28;20525;-68
2023/05/24 07:36:24;;;;;;;1.20;1.10;;;24.90;54.80;;;;;;5114378;28;20044;-69
2023/05/24 07:38:50;;;;;;;2.00;1.10;;;24.90;53.80;;;;;;5113982;28;20085;-69
2023/05/24 07:41:16;;;;;;;2.10;1.17;;;24.70;54.60;;;;;;5114177;28;20414;-68
2023/05/24 07:43:41;;;;;;;3.15;1.30;;;24.40;55.70;;;;;;5114000;28;20077;-68
2023/05/24 07:46:09;;;;;;;2.65;1.25;;;24.30;56.90;;;;;;5114418;28;20051;-68
2023/05/24 07:48:34;;;;;;;1.98;0.90;;;24.50;56.30;;;;;;5114243;28;20036;-68
2023/05/24 07:51:00;;;;;;;2.17;1.20;;;25.40;56.30;;;;;;5113836;28;20034;-68
2023/05/24 07:53:26;;;;;;;2.22;1.33;;;26.30;54.00;;;;;;5114319;28;20444;-69
2023/05/24 07:55:51;;;;;;;1.30;1.15;;;26.20;51.20;;;;;;5113398;28;20024;-69
2023/05/24 07:58:17;;;;;;;3.63;1.27;;;26.40;51.00;;;;;;5113951;28;20050;-69
2023/05/24 08:00:43;;;;;;;2.88;0.93;;;27.10;50.90;;;;;;5113293;28;20069;-69
2023/05/24 08:03:12;;;;;;;2.13;1.00;;;27.30;48.90;;;;;;5114019;28;20028;-69
2023/05/24 08:05:38;;;;;;;1.40;1.27;;;27.20;47.80;;;;;;5113746;28;20028;-73
2023/05/24 08:08:03;;;;;;;3.13;1.02;;;26.80;47.90;;;;;;5113947;28;20030;-69
2023/05/24 08:10:29;;;;;;;2.35;1.52;;;26.00;50.50;;;;;;5113096;28;20449;-68
2023/05/24 08:12:55;;;;;;;1.92;1.50;;;26.20;50.10;;;;;;5113343;28;20038;-68
2023/05/24 08:15:21;;;;;;;1.65;1.00;;;25.80;52.40;;;;;;5113623;28;20035;-69
2023/05/24 08:17:47;;;;;;;1.33;1.00;;;26.10;50.90;;;;;;5113371;28;20028;-67
2023/05/24 08:20:14;;;;;;;0.90;0.90;;;26.30;50.50;;;;;;5113740;28;20039;-68
2023/05/24 08:22:41;;;;;;;2.28;1.42;;;26.40;49.00;;;;;;5113244;28;20085;-68
2023/05/24 08:25:07;;;;;;;4.38;1.10;;;25.70;49.00;;;;;;5113425;28;20028;-68
2023/05/24 08:27:33;;;;;;;1.80;1.00;;;25.80;49.70;;;;;;5113105;28;20023;-68
2023/05/24 08:29:59;;;;;;;2.88;1.20;;;25.40;49.50;;;;;;5112980;28;20070;-68
2023/05/24 08:32:25;;;;;;;2.00;0.95;;;24.90;50.00;;;;;;5113314;28;20031;-68
2023/05/24 08:34:51;;;;;;;1.10;1.00;;;24.50;51.90;;;;;;5113060;28;20039;-68
2023/05/24 08:37:19;;;;;;;2.65;1.30;;;24.20;53.60;;;;;;5113168;28;20038;-68
2023/05/24 08:39:45;;;;;;;1.95;1.23;;;23.70;54.20;;;;;;5112821;28;20031;-68
2023/05/24 08:42:11;;;;;;;1.85;1.08;;;23.50;55.20;;;;;;5113275;28;20031;-68
2023/05/24 08:44:51;;;;;;;1.33;1.13;;;23.40;55.50;;;;;;5113331;28;20043;-69
2023/05/24 08:47:20;;;;;;;1.23;0.93;;;23.30;55.40;;;;;;5113325;28;20365;-69
2023/05/24 08:49:47;;;;;;;1.48;1.10;;;23.30;56.10;;;;;;5113150;28;20031;-69
2023/05/24 08:52:13;;;;;;;1.52;1.13;;;23.20;56.00;;;;;;5113074;28;20472;-68
2023/05/24 08:54:40;;;;;;;1.08;0.98;;;23.20;57.00;;;;;;5113060;28;20024;-70
2023/05/24 08:57:06;;;;;;;1.23;1.02;;;23.30;56.30;;;;;;5112566;28;20034;-69
2023/05/24 08:59:32;;;;;;;3.83;1.20;;;23.10;56.90;;;;;;5113021;28;20027;-68
2023/05/24 09:01:59;;;;;;;1.50;1.20;;;23.00;57.30;;;;;;5112147;28;20030;-69
2023/05/24 09:04:26;;;;;;;2.95;1.00;;;23.10;57.10;;;;;;5112740;28;20430;-68
2023/05/24 09:06:54;;;;;;;1.10;1.00;;;23.00;57.40;;;;;;5112647;28;20376;-69
2023/05/24 09:09:21;;;;;;;1.70;0.98;;;23.20;57.90;;;;;;5113057;28;20027;-68
2023/05/24 09:11:50;;;;;;;1.60;1.05;;;23.20;57.80;;;;;;5112562;28;20368;-69
2023/05/24 09:14:16;;;;;;;3.58;1.52;;;23.30;56.60;;;;;;5113316;28;20349;-68
2023/05/24 09:16:43;;;;;;;1.13;1.00;;;23.10;57.70;;;;;;5112789;28;20039;-68
2023/05/24 09:19:09;;;;;;;1.20;1.10;;;23.30;58.40;;;;;;5113302;28;20050;-68
2023/05/24 09:21:34;;;;;;;1.65;0.95;;;23.40;58.20;;;;;;5114063;28;20449;-68
2023/05/24 09:24:00;;;;;;;6.90;1.90;;;23.30;58.50;;;;;;5116185;28;20430;-68
2023/05/24 09:26:29;;;;;;;1.92;1.10;;;23.30;58.20;;;;;;5116623;28;20023;-68
2023/05/24 09:28:56;;;;;;;3.90;1.20;;;23.20;58.00;;;;;;5116549;28;20027;-68
2023/05/24 09:31:35;;;;;;;1.48;1.08;;;23.30;58.30;;;;;;5116763;28;20028;-68
2023/05/24 09:34:02;;;;;;;3.90;1.20;;;23.20;57.00;;;;;;5116010;28;20075;-68
2023/05/24 09:36:28;;;;;;;1.42;1.10;;;22.80;58.70;;;;;;5116436;28;20035;-68
2023/05/24 09:39:07;;;;;;;2.22;1.00;;;22.80;59.00;;;;;;5116157;28;20024;-69
2023/05/24 09:41:32;;;;;;;1.55;1.33;;;22.90;59.20;;;;;;5115165;28;20460;-69
2023/05/24 09:43:58;;;;;;;1.90;1.30;;;22.80;59.10;;;;;;5116188;28;20034;-69
2023/05/24 09:46:25;;;;;;;1.30;1.10;;;22.70;58.90;;;;;;5116632;28;20056;-69
2023/05/24 09:48:58;;;;;;;2.53;0.90;;;22.60;59.90;;;;;;5116104;28;20032;-70
2023/05/24 09:51:24;;;;;;;1.88;1.08;;;22.50;58.60;;;;;;5116255;28;20409;-70
2023/05/24 09:53:51;;;;;;;3.78;1.38;;;22.60;58.50;;;;;;5115781;28;20077;-69
2023/05/24 09:56:18;;;;;;;2.70;1.25;;;22.60;59.60;;;;;;5116464;28;20491;-69
2023/05/24 09:58:44;;;;;;;1.67;1.20;;;22.70;59.60;;;;;;5116371;28;20034;-69
2023/05/24 10:01:11;;;;;;;1.20;1.00;;;22.40;59.50;;;;;;5115904;27;20368;-69
2023/05/24 10:03:36;;;;;;;1.60;1.13;;;22.60;59.90;;;;;;5116350;28;20062;-69
2023/05/24 10:06:06;;;;;;;2.97;1.95;;;22.70;60.70;;;;;;5115864;28;20059;-69
2023/05/24 10:08:34;;;;;;;2.05;1.40;;;22.70;59.80;;;;;;5115734;28;20116;-69
2023/05/24 10:11:05;;;;;;;2.03;1.80;;;22.70;60.80;;;;;;5115538;28;20066;-69
2023/05/24 10:13:35;;;;;;;2.45;1.50;;;22.60;59.90;;;;;;5116151;28;20024;-69
2023/05/24 10:16:01;;;;;;;1.27;1.17;;;22.70;59.90;;;;;;5115404;28;20140;-68
2023/05/24 10:18:28;;;;;;;2.88;1.35;;;22.80;60.60;;;;;;5115772;28;20046;-68
2023/05/24 10:20:56;;;;;;;3.60;1.50;;;22.70;60.40;;;;;;5115427;28;20490;-68
2023/05/24 10:23:23;;;;;;;2.65;1.55;;;22.70;59.90;;;;;;5115779;28;20027;-68
2023/05/24 10:25:55;;;;;;;2.30;1.35;;;22.50;61.90;;;;;;5115201;28;20024;-68
2023/05/24 10:28:22;;;;;;;5.18;1.65;;;22.60;60.80;;;;;;5115845;28;20036;-68
2023/05/24 10:31:00;;;;;;;3.42;1.50;;;22.50;60.80;;;;;;5115784;28;20456;-73
2023/05/24 10:33:26;;;;;;;1.77;1.10;;;22.60;60.20;;;;;;5114624;28;20055;-69
2023/05/24 10:35:52;;;;;;;5.25;1.73;;;22.70;60.40;;;;;;5115122;28;20020;-68
2023/05/24 10:38:23;;;;;;;2.72;1.60;;;22.90;59.10;;;;;;5115598;28;20456;-68
2023/05/24 10:40:49;;;;;;;2.42;1.50;;;22.80;59.10;;;;;;5115579;28;20485;-73
2023/05/24 10:43:16;;;;;;;2.75;1.50;;;22.90;59.90;;;;;;5115315;28;20032;-69
2023/05/24 10:45:47;;;;;;;2.83;1.58;;;23.00;59.50;;;;;;5115425;28;20047;-68
2023/05/24 10:48:13;;;;;;;3.67;1.27;;;23.00;60.20;;;;;;5115153;28;20076;-69
2023/05/24 10:50:40;;;;;;;2.25;1.40;;;23.10;58.90;;;;;;5115118;28;20111;-68
2023/05/24 10:53:15;;;;;;;3.92;1.63;;;23.10;59.50;;;;;;5114717;28;20039;-68
2023/05/24 10:55:56;;;;;;;4.65;1.50;;;22.90;57.00;;;;;;5114519;28;20036;-68
2023/05/24 10:58:42;;;;;;;1.52;1.27;;;22.80;58.80;;;;;;5114906;28;20032;-68
2023/05/24 11:01:29;;;;;;;4.95;1.70;;;23.00;59.90;;;;;;5115070;28;20122;-68
2023/05/24 11:04:14;;;;;;;3.95;1.70;;;23.10;59.00;;;;;;5114639;28;20540;-70
2023/05/24 11:06:57;;;;;;;2.15;1.30;;;23.10;58.60;;;;;;5114886;28;20020;-69
2023/05/24 11:09:23;;;;;;;6.03;1.63;;;23.20;58.10;;;;;;5115275;28;20032;-69
2023/05/24 11:11:53;;;;;;;2.53;1.58;;;23.00;57.20;;;;;;5114846;28;20437;-70
2023/05/24 11:14:22;;;;;;;3.78;1.95;;;23.00;58.90;;;;;;5114760;28;20031;-69
2023/05/24 11:16:49;;;;;;;3.97;1.90;;;23.00;58.70;;;;;;5114824;28;20089;-69
2023/05/24 11:19:16;;;;;;;2.47;1.67;;;23.10;60.00;;;;;;5114336;28;20460;-69
2023/05/24 11:21:47;;;;;;;5.65;2.20;;;23.40;59.30;;;;;;5114632;28;20023;-69
2023/05/24 11:24:13;;;;;;;;;;;23.50;58.10;;;;;;5114380;28;20166;-69
2023/05/24 11:26:39;;;;;;;4.18;1.63;;;23.30;57.80;;;;;;5114252;28;19998;-69
2023/05/24 11:29:06;;;;;;;2.55;1.58;;;23.20;58.10;;;;;;5114424;28;20158;-71
2023/05/24 11:31:32;;;;;;;6.70;2.05;;;23.30;58.00;;;;;;5114440;28;20038;-68
2023/05/24 11:34:00;;;;;;;4.43;2.13;;;23.30;58.10;;;;;;5113931;28;20024;-67
2023/05/24 11:36:25;;;;;;;6.40;2.05;;;23.30;57.50;;;;;;5114591;28;20465;-69
2023/05/24 11:38:54;;;;;;;4.25;2.00;;;23.20;57.90;;;;;;5114288;28;20032;-69
2023/05/24 11:41:19;;;;;;;4.70;1.80;;;23.10;57.80;;;;;;5114194;28;20047;-69
2023/05/24 11:43:45;;;;;;;3.75;1.73;;;22.80;56.90;;;;;;5114442;28;20510;-68
2023/05/24 11:46:11;;;;;;;3.92;1.80;;;22.70;56.80;;;;;;5113165;28;20479;-70
2023/05/24 11:48:37;;;;;;;2.70;1.73;;;22.60;58.10;;;;;;5113937;28;20023;-69
2023/05/24 11:51:04;;;;;;;2.47;1.60;;;22.60;58.80;;;;;;5113803;28;20024;-70
2023/05/24 11:53:30;;;;;;;3.92;2.30;;;22.60;59.40;;;;;;5114321;28;20361;-69
2023/05/24 11:55:56;;;;;;;4.30;2.38;;;22.60;58.40;;;;;;5113337;28;20081;-70
2023/05/24 11:58:40;;;;;;;3.65;1.95;;;22.60;59.00;;;;;;5113773;28;20029;-69
2023/05/24 12:01:05;;;;;;;5.75;2.03;;;22.60;59.10;;;;;;5113556;28;20027;-69
2023/05/24 12:03:31;;;;;;;2.47;1.83;;;22.60;58.70;;;;;;5113825;28;20034;-69
2023/05/24 12:05:58;;;;;;;3.35;2.03;;;22.50;59.00;;;;;;5113461;28;20071;-68
2023/05/24 12:08:24;;;;;;;4.78;2.13;;;22.40;59.60;;;;;;5113705;28;20031;-68
2023/05/24 12:10:50;;;;;;;5.03;2.65;;;22.40;59.80;;;;;;5113804;28;20031;-67
2023/05/24 12:13:24;;;;;;;3.00;2.20;;;22.20;60.00;;;;;;5113276;28;20047;-67
2023/05/24 12:15:58;;;;;;;3.65;2.03;;;22.20;60.10;;;;;;5113802;28;20031;-68
2023/05/24 12:18:25;;;;;;;4.00;1.85;;;22.30;60.00;;;;;;5113643;28;20475;-68
2023/05/24 12:20:51;;;;;;;5.45;2.25;;;22.30;60.30;;;;;;5113674;28;20035;-68
2023/05/24 12:23:23;;;;;;;4.85;2.20;;;22.40;59.90;;;;;;5113076;28;20035;-68
2023/05/24 12:25:49;;;;;;;4.60;2.20;;;22.30;59.70;;;;;;5113468;28;20032;-68
2023/05/24 12:28:18;;;;;;;6.15;2.70;;;22.40;60.80;;;;;;5113134;28;20080;-69
2023/05/24 12:30:44;;;;;;;7.53;2.33;;;22.50;60.00;;;;;;5113189;28;20019;-68
2023/05/24 12:33:10;;;;;;;4.63;2.45;;;22.40;59.20;;;;;;5113032;28;20030;-68
2023/05/24 12:35:36;;;;;;;4.45;2.00;;;22.40;58.80;;;;;;5113185;28;20464;-68
2023/05/24 12:38:02;;;;;;;3.90;2.00;;;22.30;59.20;;;;;;5112920;28;20039;-69
2023/05/24 12:40:32;;;;;;;5.50;2.20;;;22.30;59.40;;;;;;5113293;28;20368;-69
2023/05/24 12:42:58;;;;;;;4.88;2.25;;;22.30;59.80;;;;;;5113129;28;20027;-73
2023/05/24 12:45:25;;;;;;;8.52;2.50;;;22.30;59.80;;;;;;5113330;28;20071;-69
2023/05/24 12:47:52;;;;;;;7.78;2.00;;;22.30;59.30;;;;;;5113073;28;20077;-68
2023/05/24 12:50:19;;;;;;;8.70;2.53;;;22.30;60.20;;;;;;5112303;28;20730;-68